sensor_id;sensor_type;location;lat;lon;timestamp;P1;durP1;ratioP1;P2;durP2;ratioP2
21657;SDS011;10990;48.174;9.782;2022-08-01T00:02:19;2.63;;;1.77;;
21657;SDS011;10990;48.174;9.782;2022-08-01T00:04:46;1.88;;;1.70;;
21657;SDS011;10990;48.174;9.782;2022-08-01T00:07:13;1.63;;;1.52;;
21657;SDS011;10990;48.174;9.782;2022-08-01T00:09:42;1.75;;;1.58;;
21657;SDS011;10990;48.174;9.782;2022-08-01T00:12:10;2.67;;;1.58;;
21657;SDS011;10990;48.174;9.782;2022-08-01T00:14:37;1.90;;;1.63;;
21657;SDS011;10990;48.174;9.782;2022-08-01T00:17:04;2.33;;;1.70;;
21657;SDS011;10990;48.174;9.782;2022-08-01T00:19:31;1.70;;;1.60;;
21657;SDS011;10990;48.174;9.782;2022-08-01T00:22:01;1.80;;;1.70;;
21657;SDS011;10990;48.174;9.782;2022-08-01T00:24:28;2.28;;;1.40;;
21657;SDS011;10990;48.174;9.782;2022-08-01T00:26:56;1.70;;;1.60;;
21657;SDS011;10990;48.174;9.782;2022-08-01T00:29:23;1.65;;;1.55;;
21657;SDS011;10990;48.174;9.782;2022-08-01T00:31:51;3.47;;;1.80;;
21657;SDS011;10990;48.174;9.782;2022-08-01T00:34:18;2.22;;;1.50;;
21657;SDS011;10990;48.174;9.782;2022-08-01T00:36:45;1.95;;;1.50;;
21657;SDS011;10990;48.174;9.782;2022-08-01T00:39:13;2.05;;;1.50;;
21657;SDS011;10990;48.174;9.782;2022-08-01T00:41:40;1.70;;;1.50;;
21657;SDS011;10990;48.174;9.782;2022-08-01T00:44:09;1.80;;;1.70;;
21657;SDS011;10990;48.174;9.782;2022-08-01T00:46:36;2.35;;;1.67;;
21657;SDS011;10990;48.174;9.782;2022-08-01T00:49:04;3.05;;;1.70;;
21657;SDS011;10990;48.174;9.782;2022-08-01T00:51:32;2.03;;;1.60;;
21657;SDS011;10990;48.174;9.782;2022-08-01T00:54:01;1.85;;;1.67;;
21657;SDS011;10990;48.174;9.782;2022-08-01T00:56:29;1.85;;;1.60;;
21657;SDS011;10990;48.174;9.782;2022-08-01T00:58:56;2.13;;;1.67;;
21657;SDS011;10990;48.174;9.782;2022-08-01T01:01:26;4.53;;;1.80;;
21657;SDS011;10990;48.174;9.782;2022-08-01T01:03:53;1.85;;;1.70;;
21657;SDS011;10990;48.174;9.782;2022-08-01T01:06:26;2.17;;;1.80;;
21657;SDS011;10990;48.174;9.782;2022-08-01T01:09:16;1.73;;;1.63;;
21657;SDS011;10990;48.174;9.782;2022-08-01T01:11:55;2.22;;;1.60;;
21657;SDS011;10990;48.174;9.782;2022-08-01T01:14:30;2.25;;;1.50;;
21657;SDS011;10990;48.174;9.782;2022-08-01T01:17:06;1.67;;;1.58;;
21657;SDS011;10990;48.174;9.782;2022-08-01T01:19:36;2.72;;;1.50;;
21657;SDS011;10990;48.174;9.782;2022-08-01T01:22:18;1.80;;;1.70;;
21657;SDS011;10990;48.174;9.782;2022-08-01T01:24:58;2.28;;;1.83;;
21657;SDS011;10990;48.174;9.782;2022-08-01T01:27:37;2.08;;;1.75;;
21657;SDS011;10990;48.174;9.782;2022-08-01T01:30:14;1.80;;;1.52;;
21657;SDS011;10990;48.174;9.782;2022-08-01T01:32:43;2.38;;;1.70;;
21657;SDS011;10990;48.174;9.782;2022-08-01T01:35:13;3.00;;;1.77;;
21657;SDS011;10990;48.174;9.782;2022-08-01T01:37:44;1.92;;;1.60;;
21657;SDS011;10990;48.174;9.782;2022-08-01T01:40:15;1.65;;;1.55;;
21657;SDS011;10990;48.174;9.782;2022-08-01T01:42:45;3.38;;;1.50;;
21657;SDS011;10990;48.174;9.782;2022-08-01T01:45:16;1.80;;;1.65;;
21657;SDS011;10990;48.174;9.782;2022-08-01T01:47:46;1.88;;;1.67;;
21657;SDS011;10990;48.174;9.782;2022-08-01T01:50:14;2.67;;;1.58;;
21657;SDS011;10990;48.174;9.782;2022-08-01T01:52:42;2.00;;;1.67;;
21657;SDS011;10990;48.174;9.782;2022-08-01T01:55:12;2.55;;;1.70;;
21657;SDS011;10990;48.174;9.782;2022-08-01T01:57:41;2.33;;;1.70;;
21657;SDS011;10990;48.174;9.782;2022-08-01T02:00:11;1.70;;;1.60;;
21657;SDS011;10990;48.174;9.782;2022-08-01T02:02:41;1.80;;;1.70;;
21657;SDS011;10990;48.174;9.782;2022-08-01T02:05:11;1.90;;;1.60;;
21657;SDS011;10990;48.174;9.782;2022-08-01T02:07:40;1.90;;;1.70;;
21657;SDS011;10990;48.174;9.782;2022-08-01T02:10:08;1.60;;;1.50;;
21657;SDS011;10990;48.174;9.782;2022-08-01T02:12:39;1.73;;;1.55;;
21657;SDS011;10990;48.174;9.782;2022-08-01T02:15:11;2.55;;;1.73;;
21657;SDS011;10990;48.174;9.782;2022-08-01T02:17:43;1.75;;;1.65;;
21657;SDS011;10990;48.174;9.782;2022-08-01T02:20:13;2.08;;;1.70;;
21657;SDS011;10990;48.174;9.782;2022-08-01T02:22:42;2.47;;;1.80;;
21657;SDS011;10990;48.174;9.782;2022-08-01T02:25:15;2.03;;;1.77;;
21657;SDS011;10990;48.174;9.782;2022-08-01T02:27:48;1.90;;;1.70;;
21657;SDS011;10990;48.174;9.782;2022-08-01T02:30:20;3.65;;;1.73;;
21657;SDS011;10990;48.174;9.782;2022-08-01T02:32:53;3.58;;;1.90;;
21657;SDS011;10990;48.174;9.782;2022-08-01T02:35:28;2.63;;;1.90;;
21657;SDS011;10990;48.174;9.782;2022-08-01T02:37:59;1.80;;;1.70;;
21657;SDS011;10990;48.174;9.782;2022-08-01T02:40:31;1.60;;;1.50;;
21657;SDS011;10990;48.174;9.782;2022-08-01T02:43:01;3.55;;;1.88;;
21657;SDS011;10990;48.174;9.782;2022-08-01T02:45:29;2.30;;;1.80;;
21657;SDS011;10990;48.174;9.782;2022-08-01T02:48:04;5.13;;;1.92;;
21657;SDS011;10990;48.174;9.782;2022-08-01T02:50:36;2.88;;;1.95;;
21657;SDS011;10990;48.174;9.782;2022-08-01T02:53:05;2.05;;;1.60;;
21657;SDS011;10990;48.174;9.782;2022-08-01T02:55:35;2.28;;;1.85;;
21657;SDS011;10990;48.174;9.782;2022-08-01T02:58:05;2.88;;;2.00;;
21657;SDS011;10990;48.174;9.782;2022-08-01T03:00:35;2.35;;;1.80;;
21657;SDS011;10990;48.174;9.782;2022-08-01T03:03:05;2.55;;;1.83;;
21657;SDS011;10990;48.174;9.782;2022-08-01T03:05:34;3.03;;;1.90;;
21657;SDS011;10990;48.174;9.782;2022-08-01T03:08:03;1.92;;;1.77;;
21657;SDS011;10990;48.174;9.782;2022-08-01T03:10:33;3.70;;;1.90;;
21657;SDS011;10990;48.174;9.782;2022-08-01T03:13:04;2.58;;;2.17;;
21657;SDS011;10990;48.174;9.782;2022-08-01T03:15:33;2.65;;;2.00;;
21657;SDS011;10990;48.174;9.782;2022-08-01T03:18:06;2.15;;;1.95;;
21657;SDS011;10990;48.174;9.782;2022-08-01T03:20:37;2.25;;;1.90;;
21657;SDS011;10990;48.174;9.782;2022-08-01T03:23:07;2.35;;;2.15;;
21657;SDS011;10990;48.174;9.782;2022-08-01T03:25:38;2.30;;;1.90;;
21657;SDS011;10990;48.174;9.782;2022-08-01T03:28:07;2.03;;;1.88;;
21657;SDS011;10990;48.174;9.782;2022-08-01T03:30:36;2.00;;;1.80;;
21657;SDS011;10990;48.174;9.782;2022-08-01T03:33:07;2.20;;;2.00;;
21657;SDS011;10990;48.174;9.782;2022-08-01T03:35:36;2.20;;;2.00;;
21657;SDS011;10990;48.174;9.782;2022-08-01T03:38:05;4.00;;;1.90;;
21657;SDS011;10990;48.174;9.782;2022-08-01T03:40:37;2.38;;;1.80;;
21657;SDS011;10990;48.174;9.782;2022-08-01T03:43:07;2.20;;;2.00;;
21657;SDS011;10990;48.174;9.782;2022-08-01T03:45:38;2.72;;;1.80;;
21657;SDS011;10990;48.174;9.782;2022-08-01T03:48:10;2.35;;;2.15;;
21657;SDS011;10990;48.174;9.782;2022-08-01T03:50:41;2.60;;;2.20;;
21657;SDS011;10990;48.174;9.782;2022-08-01T03:53:18;2.42;;;2.20;;
21657;SDS011;10990;48.174;9.782;2022-08-01T03:55:49;2.20;;;2.00;;
21657;SDS011;10990;48.174;9.782;2022-08-01T03:58:17;3.05;;;1.92;;
21657;SDS011;10990;48.174;9.782;2022-08-01T04:00:44;2.10;;;1.90;;
21657;SDS011;10990;48.174;9.782;2022-08-01T04:03:14;2.85;;;1.88;;
21657;SDS011;10990;48.174;9.782;2022-08-01T04:05:44;2.63;;;2.08;;
21657;SDS011;10990;48.174;9.782;2022-08-01T04:08:11;2.28;;;2.08;;
21657;SDS011;10990;48.174;9.782;2022-08-01T04:10:38;1.98;;;1.80;;
21657;SDS011;10990;48.174;9.782;2022-08-01T04:13:05;2.72;;;1.67;;
21657;SDS011;10990;48.174;9.782;2022-08-01T04:15:32;2.72;;;1.98;;
21657;SDS011;10990;48.174;9.782;2022-08-01T04:18:01;2.63;;;2.00;;
21657;SDS011;10990;48.174;9.782;2022-08-01T04:20:30;2.10;;;1.90;;
21657;SDS011;10990;48.174;9.782;2022-08-01T04:22:57;4.30;;;2.10;;
21657;SDS011;10990;48.174;9.782;2022-08-01T04:25:26;2.22;;;2.03;;
21657;SDS011;10990;48.174;9.782;2022-08-01T04:27:56;2.30;;;2.10;;
21657;SDS011;10990;48.174;9.782;2022-08-01T04:30:33;2.88;;;2.08;;
21657;SDS011;10990;48.174;9.782;2022-08-01T04:33:11;2.25;;;2.05;;
21657;SDS011;10990;48.174;9.782;2022-08-01T04:35:51;3.22;;;2.30;;
21657;SDS011;10990;48.174;9.782;2022-08-01T04:38:36;2.30;;;2.10;;
21657;SDS011;10990;48.174;9.782;2022-08-01T04:41:40;3.22;;;2.05;;
21657;SDS011;10990;48.174;9.782;2022-08-01T04:44:12;4.13;;;1.92;;
21657;SDS011;10990;48.174;9.782;2022-08-01T04:46:40;10.93;;;2.17;;
21657;SDS011;10990;48.174;9.782;2022-08-01T04:49:08;5.00;;;2.15;;
21657;SDS011;10990;48.174;9.782;2022-08-01T04:51:50;5.75;;;2.53;;
21657;SDS011;10990;48.174;9.782;2022-08-01T04:54:23;8.38;;;2.75;;
21657;SDS011;10990;48.174;9.782;2022-08-01T04:56:50;8.70;;;2.42;;
21657;SDS011;10990;48.174;9.782;2022-08-01T04:59:19;7.72;;;2.53;;
21657;SDS011;10990;48.174;9.782;2022-08-01T05:02:04;6.22;;;2.78;;
21657;SDS011;10990;48.174;9.782;2022-08-01T05:04:32;7.32;;;2.45;;
21657;SDS011;10990;48.174;9.782;2022-08-01T05:07:00;6.80;;;2.80;;
21657;SDS011;10990;48.174;9.782;2022-08-01T05:09:27;9.63;;;2.72;;
21657;SDS011;10990;48.174;9.782;2022-08-01T05:11:56;7.10;;;2.50;;
21657;SDS011;10990;48.174;9.782;2022-08-01T05:14:23;5.13;;;2.33;;
21657;SDS011;10990;48.174;9.782;2022-08-01T05:16:50;3.88;;;2.30;;
21657;SDS011;10990;48.174;9.782;2022-08-01T05:19:18;2.70;;;2.50;;
21657;SDS011;10990;48.174;9.782;2022-08-01T05:21:45;3.55;;;2.42;;
21657;SDS011;10990;48.174;9.782;2022-08-01T05:24:14;4.50;;;2.38;;
21657;SDS011;10990;48.174;9.782;2022-08-01T05:26:41;3.88;;;2.22;;
21657;SDS011;10990;48.174;9.782;2022-08-01T05:29:08;2.72;;;2.10;;
21657;SDS011;10990;48.174;9.782;2022-08-01T05:31:35;2.00;;;1.88;;
21657;SDS011;10990;48.174;9.782;2022-08-01T05:34:02;2.10;;;1.90;;
21657;SDS011;10990;48.174;9.782;2022-08-01T05:36:31;3.90;;;1.95;;
21657;SDS011;10990;48.174;9.782;2022-08-01T05:38:59;2.25;;;2.03;;
21657;SDS011;10990;48.174;9.782;2022-08-01T05:41:27;3.50;;;2.10;;
21657;SDS011;10990;48.174;9.782;2022-08-01T05:43:54;2.38;;;2.13;;
21657;SDS011;10990;48.174;9.782;2022-08-01T05:46:22;2.42;;;1.98;;
21657;SDS011;10990;48.174;9.782;2022-08-01T05:48:50;2.22;;;1.90;;
21657;SDS011;10990;48.174;9.782;2022-08-01T05:51:17;3.92;;;2.00;;
21657;SDS011;10990;48.174;9.782;2022-08-01T05:53:44;5.63;;;2.10;;
21657;SDS011;10990;48.174;9.782;2022-08-01T05:56:11;2.30;;;2.10;;
21657;SDS011;10990;48.174;9.782;2022-08-01T05:58:39;1.92;;;1.83;;
21657;SDS011;10990;48.174;9.782;2022-08-01T06:01:06;1.92;;;1.75;;
21657;SDS011;10990;48.174;9.782;2022-08-01T06:03:34;2.22;;;1.90;;
21657;SDS011;10990;48.174;9.782;2022-08-01T06:06:01;2.50;;;2.05;;
21657;SDS011;10990;48.174;9.782;2022-08-01T06:08:28;2.17;;;1.95;;
21657;SDS011;10990;48.174;9.782;2022-08-01T06:10:56;2.30;;;2.10;;
21657;SDS011;10990;48.174;9.782;2022-08-01T06:13:24;2.63;;;2.17;;
21657;SDS011;10990;48.174;9.782;2022-08-01T06:15:52;2.33;;;2.00;;
21657;SDS011;10990;48.174;9.782;2022-08-01T06:18:20;2.33;;;2.13;;
21657;SDS011;10990;48.174;9.782;2022-08-01T06:20:47;4.32;;;2.17;;
21657;SDS011;10990;48.174;9.782;2022-08-01T06:23:16;2.28;;;1.92;;
21657;SDS011;10990;48.174;9.782;2022-08-01T06:25:44;2.65;;;2.38;;
21657;SDS011;10990;48.174;9.782;2022-08-01T06:28:12;2.40;;;2.20;;
21657;SDS011;10990;48.174;9.782;2022-08-01T06:30:40;2.63;;;2.42;;
21657;SDS011;10990;48.174;9.782;2022-08-01T06:33:08;3.65;;;2.30;;
21657;SDS011;10990;48.174;9.782;2022-08-01T06:35:37;2.90;;;2.60;;
21657;SDS011;10990;48.174;9.782;2022-08-01T06:38:04;5.68;;;2.58;;
21657;SDS011;10990;48.174;9.782;2022-08-01T06:40:33;3.30;;;2.47;;
21657;SDS011;10990;48.174;9.782;2022-08-01T06:42:59;2.65;;;2.33;;
21657;SDS011;10990;48.174;9.782;2022-08-01T06:45:27;2.75;;;2.53;;
21657;SDS011;10990;48.174;9.782;2022-08-01T06:47:54;2.67;;;2.47;;
21657;SDS011;10990;48.174;9.782;2022-08-01T06:50:23;2.90;;;2.55;;
21657;SDS011;10990;48.174;9.782;2022-08-01T06:52:50;3.10;;;2.53;;
21657;SDS011;10990;48.174;9.782;2022-08-01T06:55:17;2.53;;;2.33;;
21657;SDS011;10990;48.174;9.782;2022-08-01T06:57:45;2.85;;;2.58;;
21657;SDS011;10990;48.174;9.782;2022-08-01T07:00:13;3.10;;;2.80;;
21657;SDS011;10990;48.174;9.782;2022-08-01T07:02:44;2.92;;;2.38;;
21657;SDS011;10990;48.174;9.782;2022-08-01T07:05:11;3.75;;;2.40;;
21657;SDS011;10990;48.174;9.782;2022-08-01T07:07:40;2.70;;;2.50;;
21657;SDS011;10990;48.174;9.782;2022-08-01T07:10:07;2.50;;;2.30;;
21657;SDS011;10990;48.174;9.782;2022-08-01T07:12:35;2.90;;;2.70;;
21657;SDS011;10990;48.174;9.782;2022-08-01T07:15:04;2.70;;;2.50;;
21657;SDS011;10990;48.174;9.782;2022-08-01T07:17:32;2.55;;;2.35;;
21657;SDS011;10990;48.174;9.782;2022-08-01T07:20:05;3.10;;;2.80;;
21657;SDS011;10990;48.174;9.782;2022-08-01T07:22:34;2.50;;;2.30;;
21657;SDS011;10990;48.174;9.782;2022-08-01T07:25:05;2.53;;;2.33;;
21657;SDS011;10990;48.174;9.782;2022-08-01T07:27:33;2.85;;;2.60;;
21657;SDS011;10990;48.174;9.782;2022-08-01T07:30:00;4.25;;;2.53;;
21657;SDS011;10990;48.174;9.782;2022-08-01T07:32:28;3.10;;;2.60;;
21657;SDS011;10990;48.174;9.782;2022-08-01T07:34:56;2.95;;;2.20;;
21657;SDS011;10990;48.174;9.782;2022-08-01T07:37:24;2.65;;;2.45;;
21657;SDS011;10990;48.174;9.782;2022-08-01T07:39:52;3.00;;;2.40;;
21657;SDS011;10990;48.174;9.782;2022-08-01T07:42:21;2.45;;;2.08;;
21657;SDS011;10990;48.174;9.782;2022-08-01T07:44:49;2.75;;;2.55;;
21657;SDS011;10990;48.174;9.782;2022-08-01T07:47:16;2.67;;;2.35;;
21657;SDS011;10990;48.174;9.782;2022-08-01T07:49:49;4.10;;;2.10;;
21657;SDS011;10990;48.174;9.782;2022-08-01T07:52:17;2.95;;;2.35;;
21657;SDS011;10990;48.174;9.782;2022-08-01T07:54:44;3.30;;;2.30;;
21657;SDS011;10990;48.174;9.782;2022-08-01T07:57:11;2.60;;;2.35;;
21657;SDS011;10990;48.174;9.782;2022-08-01T07:59:40;1.85;;;1.75;;
21657;SDS011;10990;48.174;9.782;2022-08-01T08:02:07;2.42;;;2.20;;
21657;SDS011;10990;48.174;9.782;2022-08-01T08:04:35;2.20;;;2.00;;
21657;SDS011;10990;48.174;9.782;2022-08-01T08:07:02;3.10;;;2.10;;
21657;SDS011;10990;48.174;9.782;2022-08-01T08:09:30;1.90;;;1.80;;
21657;SDS011;10990;48.174;9.782;2022-08-01T08:11:57;1.90;;;1.80;;
21657;SDS011;10990;48.174;9.782;2022-08-01T08:14:24;2.30;;;2.10;;
21657;SDS011;10990;48.174;9.782;2022-08-01T08:16:54;2.03;;;1.90;;
21657;SDS011;10990;48.174;9.782;2022-08-01T08:19:21;1.92;;;1.83;;
21657;SDS011;10990;48.174;9.782;2022-08-01T08:21:48;2.33;;;2.13;;
21657;SDS011;10990;48.174;9.782;2022-08-01T08:24:16;2.00;;;1.90;;
21657;SDS011;10990;48.174;9.782;2022-08-01T08:26:47;1.95;;;1.85;;
21657;SDS011;10990;48.174;9.782;2022-08-01T08:29:15;2.45;;;1.83;;
21657;SDS011;10990;48.174;9.782;2022-08-01T08:31:43;2.30;;;2.10;;
21657;SDS011;10990;48.174;9.782;2022-08-01T08:34:11;1.92;;;1.83;;
21657;SDS011;10990;48.174;9.782;2022-08-01T08:36:39;2.28;;;2.00;;
21657;SDS011;10990;48.174;9.782;2022-08-01T08:39:07;2.17;;;2.00;;
21657;SDS011;10990;48.174;9.782;2022-08-01T08:41:34;1.88;;;1.77;;
21657;SDS011;10990;48.174;9.782;2022-08-01T08:44:02;2.00;;;1.90;;
21657;SDS011;10990;48.174;9.782;2022-08-01T08:46:30;2.03;;;1.90;;
21657;SDS011;10990;48.174;9.782;2022-08-01T08:48:59;2.15;;;2.00;;
21657;SDS011;10990;48.174;9.782;2022-08-01T08:51:31;1.80;;;1.70;;
21657;SDS011;10990;48.174;9.782;2022-08-01T08:54:01;1.80;;;1.70;;
21657;SDS011;10990;48.174;9.782;2022-08-01T08:56:31;2.20;;;1.80;;
21657;SDS011;10990;48.174;9.782;2022-08-01T08:59:01;2.20;;;2.10;;
21657;SDS011;10990;48.174;9.782;2022-08-01T09:01:30;3.05;;;2.10;;
21657;SDS011;10990;48.174;9.782;2022-08-01T09:03:58;2.65;;;2.10;;
21657;SDS011;10990;48.174;9.782;2022-08-01T09:06:26;1.90;;;1.80;;
21657;SDS011;10990;48.174;9.782;2022-08-01T09:08:56;2.45;;;1.90;;
21657;SDS011;10990;48.174;9.782;2022-08-01T09:11:24;1.83;;;1.73;;
21657;SDS011;10990;48.174;9.782;2022-08-01T09:14:02;1.77;;;1.67;;
21657;SDS011;10990;48.174;9.782;2022-08-01T09:16:31;1.90;;;1.80;;
21657;SDS011;10990;48.174;9.782;2022-08-01T09:19:08;2.55;;;2.10;;
21657;SDS011;10990;48.174;9.782;2022-08-01T09:21:37;1.98;;;1.88;;
21657;SDS011;10990;48.174;9.782;2022-08-01T09:24:13;2.20;;;2.00;;
21657;SDS011;10990;48.174;9.782;2022-08-01T09:26:41;2.20;;;2.00;;
21657;SDS011;10990;48.174;9.782;2022-08-01T09:29:17;2.47;;;1.90;;
21657;SDS011;10990;48.174;9.782;2022-08-01T09:31:46;2.08;;;1.98;;
21657;SDS011;10990;48.174;9.782;2022-08-01T09:34:14;3.17;;;2.20;;
21657;SDS011;10990;48.174;9.782;2022-08-01T09:36:46;2.40;;;2.20;;
21657;SDS011;10990;48.174;9.782;2022-08-01T09:39:19;2.10;;;1.95;;
21657;SDS011;10990;48.174;9.782;2022-08-01T09:41:48;2.30;;;2.10;;
21657;SDS011;10990;48.174;9.782;2022-08-01T09:44:16;1.98;;;1.85;;
21657;SDS011;10990;48.174;9.782;2022-08-01T09:46:49;3.13;;;2.08;;
21657;SDS011;10990;48.174;9.782;2022-08-01T09:49:28;2.25;;;2.10;;
21657;SDS011;10990;48.174;9.782;2022-08-01T09:51:58;2.10;;;2.00;;
21657;SDS011;10990;48.174;9.782;2022-08-01T09:54:29;2.00;;;1.90;;
21657;SDS011;10990;48.174;9.782;2022-08-01T09:57:07;3.42;;;2.15;;
21657;SDS011;10990;48.174;9.782;2022-08-01T09:59:36;2.33;;;2.10;;
21657;SDS011;10990;48.174;9.782;2022-08-01T10:02:07;2.95;;;2.10;;
21657;SDS011;10990;48.174;9.782;2022-08-01T10:04:35;2.17;;;2.00;;
21657;SDS011;10990;48.174;9.782;2022-08-01T10:07:04;2.30;;;2.10;;
21657;SDS011;10990;48.174;9.782;2022-08-01T10:09:35;2.83;;;2.13;;
21657;SDS011;10990;48.174;9.782;2022-08-01T10:12:03;2.50;;;2.30;;
21657;SDS011;10990;48.174;9.782;2022-08-01T10:14:30;2.47;;;2.28;;
21657;SDS011;10990;48.174;9.782;2022-08-01T10:16:59;3.58;;;2.15;;
21657;SDS011;10990;48.174;9.782;2022-08-01T10:19:27;2.00;;;1.90;;
21657;SDS011;10990;48.174;9.782;2022-08-01T10:21:57;1.90;;;1.80;;
21657;SDS011;10990;48.174;9.782;2022-08-01T10:24:25;1.90;;;1.80;;
21657;SDS011;10990;48.174;9.782;2022-08-01T10:26:58;1.80;;;1.70;;
21657;SDS011;10990;48.174;9.782;2022-08-01T10:29:31;2.00;;;1.85;;
21657;SDS011;10990;48.174;9.782;2022-08-01T10:32:03;2.28;;;2.08;;
21657;SDS011;10990;48.174;9.782;2022-08-01T10:34:31;1.80;;;1.70;;
21657;SDS011;10990;48.174;9.782;2022-08-01T10:37:01;1.80;;;1.70;;
21657;SDS011;10990;48.174;9.782;2022-08-01T10:39:30;1.70;;;1.60;;
21657;SDS011;10990;48.174;9.782;2022-08-01T10:41:58;1.70;;;1.60;;
21657;SDS011;10990;48.174;9.782;2022-08-01T10:44:27;2.10;;;1.90;;
21657;SDS011;10990;48.174;9.782;2022-08-01T10:46:57;3.30;;;1.80;;
21657;SDS011;10990;48.174;9.782;2022-08-01T10:49:30;2.75;;;2.15;;
21657;SDS011;10990;48.174;9.782;2022-08-01T10:52:02;2.33;;;1.88;;
21657;SDS011;10990;48.174;9.782;2022-08-01T10:54:30;2.17;;;1.92;;
21657;SDS011;10990;48.174;9.782;2022-08-01T10:57:07;2.13;;;1.80;;
21657;SDS011;10990;48.174;9.782;2022-08-01T10:59:36;2.00;;;1.90;;
21657;SDS011;10990;48.174;9.782;2022-08-01T11:02:26;2.28;;;2.08;;
21657;SDS011;10990;48.174;9.782;2022-08-01T11:04:55;2.47;;;1.90;;
21657;SDS011;10990;48.174;9.782;2022-08-01T11:07:35;2.08;;;1.95;;
21657;SDS011;10990;48.174;9.782;2022-08-01T11:10:14;1.83;;;1.73;;
21657;SDS011;10990;48.174;9.782;2022-08-01T11:12:51;2.30;;;2.10;;
21657;SDS011;10990;48.174;9.782;2022-08-01T11:15:19;2.88;;;1.80;;
21657;SDS011;10990;48.174;9.782;2022-08-01T11:17:53;2.05;;;1.90;;
21657;SDS011;10990;48.174;9.782;2022-08-01T11:20:21;2.00;;;1.90;;
21657;SDS011;10990;48.174;9.782;2022-08-01T11:26:06;2.22;;;2.03;;
21657;SDS011;10990;48.174;9.782;2022-08-01T11:28:37;2.17;;;1.98;;
21657;SDS011;10990;48.174;9.782;2022-08-01T11:33:59;2.20;;;1.92;;
21657;SDS011;10990;48.174;9.782;2022-08-01T11:36:26;2.13;;;1.98;;
21657;SDS011;10990;48.174;9.782;2022-08-01T11:39:14;2.30;;;2.10;;
21657;SDS011;10990;48.174;9.782;2022-08-01T11:41:45;2.25;;;2.05;;
21657;SDS011;10990;48.174;9.782;2022-08-01T11:44:19;2.70;;;2.30;;
21657;SDS011;10990;48.174;9.782;2022-08-01T11:46:57;2.30;;;1.95;;
21657;SDS011;10990;48.174;9.782;2022-08-01T11:52:11;2.53;;;2.20;;
21657;SDS011;10990;48.174;9.782;2022-08-01T11:54:41;3.22;;;2.45;;
21657;SDS011;10990;48.174;9.782;2022-08-01T11:57:10;4.68;;;2.03;;
21657;SDS011;10990;48.174;9.782;2022-08-01T11:59:41;4.50;;;1.90;;
21657;SDS011;10990;48.174;9.782;2022-08-01T12:02:17;2.30;;;2.10;;
21657;SDS011;10990;48.174;9.782;2022-08-01T12:04:49;2.33;;;2.13;;
21657;SDS011;10990;48.174;9.782;2022-08-01T12:07:22;2.67;;;2.17;;
21657;SDS011;10990;48.174;9.782;2022-08-01T12:09:58;2.42;;;2.22;;
21657;SDS011;10990;48.174;9.782;2022-08-01T12:12:27;2.20;;;2.00;;
21657;SDS011;10990;48.174;9.782;2022-08-01T12:14:57;3.30;;;2.00;;
21657;SDS011;10990;48.174;9.782;2022-08-01T12:17:29;2.55;;;2.30;;
21657;SDS011;10990;48.174;9.782;2022-08-01T12:20:02;2.95;;;2.05;;
21657;SDS011;10990;48.174;9.782;2022-08-01T12:22:32;2.55;;;2.35;;
21657;SDS011;10990;48.174;9.782;2022-08-01T12:25:06;2.80;;;2.10;;
21657;SDS011;10990;48.174;9.782;2022-08-01T12:27:35;2.97;;;2.28;;
21657;SDS011;10990;48.174;9.782;2022-08-01T12:30:06;2.72;;;2.30;;
21657;SDS011;10990;48.174;9.782;2022-08-01T12:32:36;2.20;;;2.10;;
21657;SDS011;10990;48.174;9.782;2022-08-01T12:35:05;3.08;;;2.03;;
21657;SDS011;10990;48.174;9.782;2022-08-01T12:37:34;4.07;;;2.05;;
21657;SDS011;10990;48.174;9.782;2022-08-01T12:40:09;2.72;;;1.98;;
21657;SDS011;10990;48.174;9.782;2022-08-01T12:42:37;2.13;;;1.92;;
21657;SDS011;10990;48.174;9.782;2022-08-01T12:45:07;2.60;;;2.40;;
21657;SDS011;10990;48.174;9.782;2022-08-01T12:47:36;2.38;;;2.10;;
21657;SDS011;10990;48.174;9.782;2022-08-01T12:50:05;2.25;;;2.05;;
21657;SDS011;10990;48.174;9.782;2022-08-01T12:52:35;4.00;;;2.25;;
21657;SDS011;10990;48.174;9.782;2022-08-01T12:55:07;2.50;;;2.30;;
21657;SDS011;10990;48.174;9.782;2022-08-01T12:57:40;3.63;;;2.75;;
21657;SDS011;10990;48.174;9.782;2022-08-01T13:00:12;4.70;;;2.90;;
21657;SDS011;10990;48.174;9.782;2022-08-01T13:02:43;3.20;;;2.67;;
21657;SDS011;10990;48.174;9.782;2022-08-01T13:05:10;7.28;;;2.88;;
21657;SDS011;10990;48.174;9.782;2022-08-01T13:07:41;4.63;;;2.75;;
21657;SDS011;10990;48.174;9.782;2022-08-01T13:10:10;3.80;;;2.80;;
21657;SDS011;10990;48.174;9.782;2022-08-01T13:12:38;3.40;;;2.55;;
21657;SDS011;10990;48.174;9.782;2022-08-01T13:15:18;3.25;;;2.95;;
21657;SDS011;10990;48.174;9.782;2022-08-01T13:17:51;2.92;;;2.30;;
21657;SDS011;10990;48.174;9.782;2022-08-01T13:20:22;5.32;;;2.75;;
21657;SDS011;10990;48.174;9.782;2022-08-01T13:22:55;6.03;;;2.90;;
21657;SDS011;10990;48.174;9.782;2022-08-01T13:25:46;4.05;;;2.83;;
21657;SDS011;10990;48.174;9.782;2022-08-01T13:28:18;6.80;;;2.80;;
21657;SDS011;10990;48.174;9.782;2022-08-01T13:30:54;3.38;;;2.95;;
21657;SDS011;10990;48.174;9.782;2022-08-01T13:33:23;5.50;;;2.72;;
21657;SDS011;10990;48.174;9.782;2022-08-01T13:35:51;4.55;;;2.90;;
21657;SDS011;10990;48.174;9.782;2022-08-01T13:38:20;3.97;;;2.85;;
21657;SDS011;10990;48.174;9.782;2022-08-01T13:41:09;3.20;;;2.70;;
21657;SDS011;10990;48.174;9.782;2022-08-01T13:43:36;2.60;;;2.40;;
21657;SDS011;10990;48.174;9.782;2022-08-01T13:46:06;3.15;;;2.80;;
21657;SDS011;10990;48.174;9.782;2022-08-01T13:48:33;4.60;;;2.88;;
21657;SDS011;10990;48.174;9.782;2022-08-01T13:51:00;5.85;;;2.90;;
21657;SDS011;10990;48.174;9.782;2022-08-01T13:53:28;3.33;;;2.88;;
21657;SDS011;10990;48.174;9.782;2022-08-01T13:55:55;4.97;;;3.22;;
21657;SDS011;10990;48.174;9.782;2022-08-01T13:58:23;4.93;;;3.33;;
21657;SDS011;10990;48.174;9.782;2022-08-01T14:00:50;6.20;;;3.20;;
21657;SDS011;10990;48.174;9.782;2022-08-01T14:03:19;4.72;;;2.80;;
21657;SDS011;10990;48.174;9.782;2022-08-01T14:05:46;3.28;;;2.97;;
21657;SDS011;10990;48.174;9.782;2022-08-01T14:08:13;5.63;;;3.40;;
21657;SDS011;10990;48.174;9.782;2022-08-01T14:10:41;4.63;;;3.25;;
21657;SDS011;10990;48.174;9.782;2022-08-01T14:13:08;4.57;;;2.75;;
21657;SDS011;10990;48.174;9.782;2022-08-01T14:15:37;4.22;;;2.80;;
21657;SDS011;10990;48.174;9.782;2022-08-01T14:18:04;2.72;;;2.42;;
21657;SDS011;10990;48.174;9.782;2022-08-01T14:20:34;2.45;;;2.20;;
21657;SDS011;10990;48.174;9.782;2022-08-01T14:23:02;4.15;;;2.30;;
21657;SDS011;10990;48.174;9.782;2022-08-01T14:25:30;2.60;;;2.40;;
21657;SDS011;10990;48.174;9.782;2022-08-01T14:27:57;8.57;;;3.38;;
21657;SDS011;10990;48.174;9.782;2022-08-01T14:30:24;4.38;;;3.33;;
21657;SDS011;10990;48.174;9.782;2022-08-01T14:32:51;8.20;;;3.40;;
21657;SDS011;10990;48.174;9.782;2022-08-01T14:35:21;3.92;;;2.80;;
21657;SDS011;10990;48.174;9.782;2022-08-01T14:37:50;5.68;;;3.60;;
21657;SDS011;10990;48.174;9.782;2022-08-01T14:40:17;7.57;;;3.40;;
21657;SDS011;10990;48.174;9.782;2022-08-01T14:42:44;6.07;;;3.20;;
21657;SDS011;10990;48.174;9.782;2022-08-01T14:45:12;7.07;;;2.92;;
21657;SDS011;10990;48.174;9.782;2022-08-01T14:47:42;4.25;;;2.60;;
21657;SDS011;10990;48.174;9.782;2022-08-01T14:50:10;5.05;;;3.38;;
21657;SDS011;10990;48.174;9.782;2022-08-01T14:52:39;3.05;;;2.70;;
21657;SDS011;10990;48.174;9.782;2022-08-01T14:55:09;3.55;;;2.70;;
21657;SDS011;10990;48.174;9.782;2022-08-01T14:57:39;3.65;;;2.70;;
21657;SDS011;10990;48.174;9.782;2022-08-01T15:00:07;3.20;;;2.60;;
21657;SDS011;10990;48.174;9.782;2022-08-01T15:02:37;3.75;;;2.67;;
21657;SDS011;10990;48.174;9.782;2022-08-01T15:05:05;3.10;;;2.35;;
21657;SDS011;10990;48.174;9.782;2022-08-01T15:07:33;3.22;;;2.45;;
21657;SDS011;10990;48.174;9.782;2022-08-01T15:10:01;3.33;;;2.47;;
21657;SDS011;10990;48.174;9.782;2022-08-01T15:12:30;3.13;;;2.10;;
21657;SDS011;10990;48.174;9.782;2022-08-01T15:14:57;3.15;;;2.42;;